createdAt,value
2019-06-27T00:00:26.028Z,98613.68
2019-06-27T00:02:58.052Z,98617.52
2019-06-27T00:05:29.978Z,98612.29
2019-06-27T00:08:02.099Z,98611.39
2019-06-27T00:10:34.614Z,98611.30
2019-06-27T00:13:06.615Z,98602.95
2019-06-27T00:15:38.660Z,98614.20
2019-06-27T00:18:10.666Z,98608.41
2019-06-27T00:20:42.711Z,98605.33
2019-06-27T00:23:14.632Z,98604.80
2019-06-27T00:25:46.676Z,98606.50
2019-06-27T00:28:18.661Z,98605.63
2019-06-27T00:30:50.648Z,98609.89
2019-06-27T00:33:22.606Z,98611.13
2019-06-27T00:35:54.590Z,98617.66
2019-06-27T00:38:26.567Z,98613.27
2019-06-27T00:40:58.548Z,98615.89
2019-06-27T00:43:30.573Z,98614.61
2019-06-27T00:46:02.615Z,98616.69
2019-06-27T00:48:34.571Z,98619.27
2019-06-27T00:51:06.544Z,98616.25
2019-06-27T00:53:38.517Z,98623.73
2019-06-27T00:56:10.487Z,98619.44
2019-06-27T00:58:42.459Z,98616.80
2019-06-27T01:01:14.477Z,98614.69
2019-06-27T01:03:46.444Z,98617.30
2019-06-27T01:06:20.025Z,98617.23
2019-06-27T01:08:52.000Z,98621.95
2019-06-27T01:11:23.973Z,98624.56
2019-06-27T01:13:55.937Z,98618.36
2019-06-27T01:16:27.926Z,98623.52
2019-06-27T01:18:59.929Z,98616.53
2019-06-27T01:21:31.912Z,98615.23
2019-06-27T01:24:03.880Z,98619.59
2019-06-27T01:26:35.860Z,98621.33
2019-06-27T01:29:07.831Z,98624.02
2019-06-27T01:31:39.810Z,98627.87
2019-06-27T01:34:11.816Z,98627.43
2019-06-27T01:36:43.782Z,98643.55
2019-06-27T01:39:15.755Z,98648.27
2019-06-27T01:41:47.736Z,98643.36
2019-06-27T01:44:38.641Z,98634.64
2019-06-27T01:47:10.742Z,98634.69
2019-06-27T01:49:42.706Z,98633.30
2019-06-27T01:52:14.699Z,98631.04
2019-06-27T01:54:46.652Z,98627.48
2019-06-27T01:57:18.699Z,98622.20
2019-06-27T01:59:50.677Z,98622.25
2019-06-27T02:02:22.646Z,98623.95
2019-06-27T02:04:54.630Z,98632.19
2019-06-27T02:07:26.595Z,98632.62
2019-06-27T02:09:58.596Z,98643.91
2019-06-27T02:12:30.562Z,98639.94
2019-06-27T02:15:02.691Z,98645.61
2019-06-27T02:17:34.659Z,98643.03
2019-06-27T02:20:06.897Z,98647.74
2019-06-27T02:22:38.840Z,98653.83
2019-06-27T02:25:11.717Z,98651.56
2019-06-27T02:27:43.665Z,98660.19
2019-06-27T02:30:20.979Z,98659.13
2019-06-27T02:32:52.934Z,98649.11
2019-06-27T02:35:24.930Z,98651.25
2019-06-27T02:37:56.898Z,98649.12
2019-06-27T02:40:28.884Z,98649.16
2019-06-27T02:43:00.856Z,98656.38
2019-06-27T02:45:32.828Z,98651.05
2019-06-27T02:48:04.774Z,98649.31
2019-06-27T02:50:36.760Z,98650.97
2019-06-27T02:53:08.733Z,98650.95
2019-06-27T02:55:40.705Z,98654.83
2019-06-27T02:58:28.595Z,98657.59
2019-06-27T03:00:46.555Z,98654.06
2019-06-27T03:03:18.508Z,98654.97
2019-06-27T03:05:50.496Z,98658.95
2019-06-27T03:08:22.446Z,98652.41
2019-06-27T03:10:54.477Z,98646.89
2019-06-27T03:13:26.425Z,98645.11
2019-06-27T03:15:58.403Z,98645.89
2019-06-27T03:18:30.375Z,98645.41
2019-06-27T03:21:02.355Z,98649.80
2019-06-27T03:23:34.298Z,98648.94
2019-06-27T03:26:06.558Z,98650.20
2019-06-27T03:28:52.261Z,98648.08
2019-06-27T03:31:12.546Z,98651.26
2019-06-27T03:33:44.526Z,98655.11
2019-06-27T03:36:16.505Z,98655.41
2019-06-27T03:38:48.477Z,98656.28
2019-06-27T03:41:20.451Z,98656.03
2019-06-27T03:43:52.411Z,98656.03
2019-06-27T03:46:24.470Z,98664.16
2019-06-27T03:48:56.429Z,98657.34
2019-06-27T03:51:28.452Z,98659.22
2019-06-27T03:54:00.421Z,98657.88
2019-06-27T03:56:32.430Z,98655.64
2019-06-27T03:59:12.472Z,98658.84
2019-06-27T04:01:38.269Z,98654.44
2019-06-27T04:04:10.307Z,98647.77
2019-06-27T04:06:42.289Z,98647.97
2019-06-27T04:09:14.266Z,98652.59
2019-06-27T04:11:46.414Z,98657.48
2019-06-27T04:14:18.395Z,98655.31
2019-06-27T04:16:50.393Z,98656.67
2019-06-27T04:19:22.344Z,98664.06
2019-06-27T04:21:54.641Z,98665.03
2019-06-27T04:24:26.611Z,98666.63
2019-06-27T04:26:58.624Z,98668.03
2019-06-27T04:29:34.120Z,98667.51
2019-06-27T04:32:04.468Z,98671.02
2019-06-27T04:34:36.435Z,98669.05
2019-06-27T04:37:08.568Z,98671.70
2019-06-27T04:39:40.528Z,98672.72
2019-06-27T04:42:12.697Z,98668.42
2019-06-27T04:44:44.776Z,98673.83
2019-06-27T04:47:16.875Z,98671.91
2019-06-27T04:49:48.974Z,98666.26
2019-06-27T04:52:21.001Z,98665.40
2019-06-27T04:54:54.280Z,98673.25
2019-06-27T04:57:26.354Z,98674.08
2019-06-27T04:59:58.307Z,98677.96
2019-06-27T05:02:30.981Z,98669.97
2019-06-27T05:05:03.088Z,98670.19
2019-06-27T05:07:35.089Z,98672.10
2019-06-27T05:10:07.058Z,98664.75
2019-06-27T05:12:39.154Z,98666.11
2019-06-27T05:15:11.819Z,98670.08
2019-06-27T05:17:43.803Z,98660.88
2019-06-27T05:20:16.670Z,98660.02
2019-06-27T05:22:48.688Z,98654.69
2019-06-27T05:25:20.648Z,98658.61
2019-06-27T05:27:52.898Z,98666.09
2019-06-27T05:30:24.867Z,98668.66
2019-06-27T05:32:56.859Z,98670.75
2019-06-27T05:35:28.822Z,98666.16
2019-06-27T05:38:00.852Z,98671.22
2019-06-27T05:40:32.836Z,98677.23
2019-06-27T05:43:05.672Z,98669.30
2019-06-27T05:45:37.644Z,98664.25
2019-06-27T05:48:09.672Z,98663.70
2019-06-27T05:50:41.710Z,98665.09
2019-06-27T05:53:13.649Z,98660.86
2019-06-27T05:55:45.742Z,98665.94
2019-06-27T05:58:17.725Z,98667.48
2019-06-27T06:00:49.682Z,98666.62
2019-06-27T06:03:21.677Z,98672.52
2019-06-27T06:05:53.652Z,98670.83
2019-06-27T06:08:25.626Z,98669.19
2019-06-27T06:10:57.576Z,98667.02
2019-06-27T06:13:29.562Z,98663.19
2019-06-27T06:16:01.676Z,98667.23
2019-06-27T06:18:33.707Z,98668.77
2019-06-27T06:21:05.691Z,98665.42
2019-06-27T06:23:37.696Z,98672.31
2019-06-27T06:26:09.661Z,98671.64
2019-06-27T06:28:41.671Z,98675.72
2019-06-27T06:31:13.668Z,98681.36
2019-06-27T06:33:45.652Z,98679.95
2019-06-27T06:36:17.573Z,98676.81
2019-06-27T06:38:49.757Z,98684.45
2019-06-27T06:41:21.743Z,98678.11
2019-06-27T06:43:53.799Z,98679.70
2019-06-27T06:46:25.771Z,98686.67
2019-06-27T06:48:57.835Z,98691.11
2019-06-27T06:51:29.837Z,98699.69
2019-06-27T06:54:02.341Z,98703.84
2019-06-27T06:56:34.404Z,98704.31
2019-06-27T06:59:06.401Z,98710.16
2019-06-27T07:01:38.368Z,98707.20
2019-06-27T07:04:10.340Z,98705.00
2019-06-27T07:06:42.331Z,98705.14
2019-06-27T07:09:14.338Z,98704.81
2019-06-27T07:11:46.298Z,98705.50
2019-06-27T07:14:18.274Z,98712.74
2019-06-27T07:16:50.253Z,98704.60
2019-06-27T07:19:22.232Z,98704.89
2019-06-27T07:21:54.187Z,98703.95
2019-06-27T07:24:26.180Z,98702.10
2019-06-27T07:26:58.124Z,98706.54
2019-06-27T07:29:30.115Z,98703.32
2019-06-27T07:32:02.081Z,98713.05
2019-06-27T07:34:34.061Z,98708.32
2019-06-27T07:37:06.054Z,98710.84
2019-06-27T07:39:38.046Z,98715.94
2019-06-27T07:42:10.017Z,98711.72
2019-06-27T07:44:42.009Z,98711.55
2019-06-27T07:47:13.970Z,98714.44
2019-06-27T07:49:45.937Z,98719.03
2019-06-27T07:52:17.906Z,98721.88
2019-06-27T07:54:49.967Z,98721.14
2019-06-27T07:57:21.912Z,98724.10
2019-06-27T07:59:53.900Z,98732.46
2019-06-27T08:02:25.923Z,98732.67
2019-06-27T08:04:57.971Z,98729.92
2019-06-27T08:07:29.957Z,98728.66
2019-06-27T08:10:02.083Z,98733.40
2019-06-27T08:12:34.222Z,98726.25
2019-06-27T08:15:06.502Z,98720.16
2019-06-27T08:17:38.495Z,98721.20
2019-06-27T08:20:10.429Z,98722.60
2019-06-27T08:22:42.413Z,98722.03
2019-06-27T08:25:14.567Z,98730.13
2019-06-27T08:27:46.562Z,98727.66
2019-06-27T08:30:18.919Z,98729.45
2019-06-27T08:32:50.910Z,98729.06
2019-06-27T08:35:22.872Z,98731.09
2019-06-27T08:37:54.877Z,98729.02
2019-06-27T08:40:26.918Z,98726.98
2019-06-27T08:42:58.900Z,98720.11
2019-06-27T08:45:30.915Z,98725.39
2019-06-27T08:48:02.946Z,98726.88
2019-06-27T08:50:34.909Z,98718.77
2019-06-27T08:53:06.892Z,98717.20
2019-06-27T08:55:38.836Z,98715.48
2019-06-27T08:58:10.846Z,98722.36
2019-06-27T09:00:45.820Z,98726.41
2019-06-27T09:03:16.885Z,98722.81
2019-06-27T09:05:48.834Z,98721.70
2019-06-27T09:08:20.824Z,98721.48
2019-06-27T09:10:52.819Z,98714.64
2019-06-27T09:13:24.833Z,98712.06
2019-06-27T09:15:56.841Z,98713.39
2019-06-27T09:18:28.820Z,98718.11
2019-06-27T09:21:00.862Z,98722.83
2019-06-27T09:23:32.912Z,98721.31
2019-06-27T09:26:04.883Z,98716.59
2019-06-27T09:28:36.868Z,98715.40
2019-06-27T09:31:08.873Z,98717.10
2019-06-27T09:33:40.840Z,98712.98
2019-06-27T09:36:12.807Z,98715.40
2019-06-27T09:38:44.783Z,98717.81
2019-06-27T09:41:16.833Z,98713.02
2019-06-27T09:43:48.959Z,98721.60
2019-06-27T09:46:20.938Z,98719.25
2019-06-27T09:48:52.920Z,98722.56
2019-06-27T09:51:24.880Z,98716.80
2019-06-27T09:53:56.854Z,98716.78
2019-06-27T09:56:28.807Z,98714.44
2019-06-27T09:59:00.786Z,98717.81
2019-06-27T10:01:32.755Z,98715.77
2019-06-27T10:04:04.814Z,98717.34
2019-06-27T10:06:36.772Z,98709.00
2019-06-27T10:09:08.768Z,98716.72
2019-06-27T10:11:40.734Z,98711.73
2019-06-27T10:14:12.751Z,98709.53
2019-06-27T10:16:44.750Z,98709.90
2019-06-27T10:19:16.846Z,98706.34
2019-06-27T10:21:48.815Z,98706.20
2019-06-27T10:24:20.823Z,98711.89
2019-06-27T10:26:52.828Z,98707.06
2019-06-27T10:29:24.824Z,98700.71
2019-06-27T10:31:56.807Z,98698.35
2019-06-27T10:34:28.790Z,98695.89
2019-06-27T10:37:00.726Z,98694.35
2019-06-27T10:39:32.763Z,98689.92
2019-06-27T10:42:04.723Z,98690.44
2019-06-27T10:44:36.751Z,98692.70
2019-06-27T10:47:08.695Z,98687.69
2019-06-27T10:49:40.687Z,98682.48
2019-06-27T10:52:12.756Z,98687.11
2019-06-27T10:54:44.733Z,98688.17
2019-06-27T10:57:16.820Z,98683.41
2019-06-27T10:59:48.764Z,98686.64
2019-06-27T11:02:20.812Z,98678.86
2019-06-27T11:04:52.774Z,98671.91
2019-06-27T11:07:24.876Z,98678.69
2019-06-27T11:09:56.873Z,98675.23
2019-06-27T11:12:28.963Z,98672.88
2019-06-27T11:15:00.941Z,98669.77
2019-06-27T11:17:32.950Z,98666.58
2019-06-27T11:20:04.931Z,98666.15
2019-06-27T11:22:36.928Z,98662.16
2019-06-27T11:25:09.263Z,98663.19
2019-06-27T11:27:41.244Z,98658.27
2019-06-27T11:30:13.320Z,98658.84
2019-06-27T11:32:45.329Z,98655.71
2019-06-27T11:35:17.321Z,98652.28
2019-06-27T11:37:49.308Z,98660.16
2019-06-27T11:40:23.100Z,98651.58
2019-06-27T11:42:55.109Z,98644.06
2019-06-27T11:45:27.128Z,98649.63
2019-06-27T11:47:59.176Z,98644.30
2019-06-27T11:50:31.140Z,98640.24
2019-06-27T11:53:03.094Z,98639.58
2019-06-27T11:55:35.128Z,98636.22
2019-06-27T11:58:07.249Z,98635.23
2019-06-27T12:00:39.273Z,98637.02
2019-06-27T12:03:11.260Z,98642.09
2019-06-27T12:05:43.264Z,98637.80
2019-06-27T12:08:15.245Z,98638.32
2019-06-27T12:10:47.286Z,98635.29
2019-06-27T12:13:19.209Z,98636.28
2019-06-27T12:15:51.763Z,98628.83
2019-06-27T12:18:23.881Z,98634.58
2019-06-27T12:20:55.873Z,98631.09
2019-06-27T12:23:27.845Z,98629.11
2019-06-27T12:25:59.838Z,98623.56
2019-06-27T12:28:31.892Z,98624.38
2019-06-27T12:31:19.456Z,98621.53
2019-06-27T12:33:37.775Z,98625.15
2019-06-27T12:36:09.795Z,98618.41
2019-06-27T12:38:41.800Z,98618.11
2019-06-27T12:41:13.827Z,98618.30
2019-06-27T12:43:45.808Z,98613.07
2019-06-27T12:46:17.800Z,98611.00
2019-06-27T12:48:49.795Z,98620.23
2019-06-27T12:51:21.919Z,98604.27
2019-06-27T12:53:56.049Z,98610.07
2019-06-27T12:56:27.867Z,98612.61
2019-06-27T12:58:59.868Z,98603.02
2019-06-27T13:01:31.842Z,98607.68
2019-06-27T13:04:03.970Z,98598.37
2019-06-27T13:06:35.966Z,98592.27
2019-06-27T13:09:07.995Z,98590.94
2019-06-27T13:11:39.970Z,98594.24
2019-06-27T13:14:11.986Z,98593.47
2019-06-27T13:16:43.956Z,98597.16
2019-06-27T13:19:15.940Z,98589.73
2019-06-27T13:21:47.944Z,98591.28
2019-06-27T13:24:19.949Z,98585.84
2019-06-27T13:26:51.942Z,98584.76
2019-06-27T13:29:26.830Z,98585.97
2019-06-27T13:31:57.851Z,98587.64
2019-06-27T13:34:39.944Z,98584.80
2019-06-27T13:37:03.846Z,98585.56
2019-06-27T13:39:35.863Z,98579.41
2019-06-27T13:42:07.905Z,98582.81
2019-06-27T13:44:40.985Z,98579.33
2019-06-27T13:47:12.992Z,98574.20
2019-06-27T13:49:45.475Z,98575.63
2019-06-27T13:52:17.543Z,98571.75
2019-06-27T13:54:49.510Z,98575.18
2019-06-27T13:57:21.811Z,98572.52
2019-06-27T13:59:53.819Z,98565.75
2019-06-27T14:02:25.806Z,98570.17
2019-06-27T14:04:58.046Z,98560.97
2019-06-27T14:07:30.071Z,98561.37
2019-06-27T14:10:02.126Z,98554.82
2019-06-27T14:12:34.117Z,98553.75
2019-06-27T14:15:06.444Z,98553.55
2019-06-27T14:17:38.461Z,98554.58
2019-06-27T14:20:10.519Z,98544.38
2019-06-27T14:22:42.500Z,98550.17
2019-06-27T14:25:14.720Z,98553.26
2019-06-27T14:27:46.715Z,98552.02
2019-06-27T14:30:18.918Z,98555.28
2019-06-27T14:32:53.221Z,98555.42
2019-06-27T14:35:24.789Z,98551.45
2019-06-27T14:37:56.760Z,98546.63
2019-06-27T14:40:28.727Z,98554.77
2019-06-27T14:43:00.706Z,98554.17
2019-06-27T14:45:32.747Z,98557.13
2019-06-27T14:48:04.717Z,98556.88
2019-06-27T14:50:36.740Z,98553.48
2019-06-27T14:53:08.749Z,98558.36
2019-06-27T14:55:40.748Z,98560.23
2019-06-27T14:58:12.790Z,98551.44
2019-06-27T15:00:44.813Z,98554.80
2019-06-27T15:03:16.789Z,98551.06
2019-06-27T15:05:48.759Z,98553.21
2019-06-27T15:08:20.716Z,98551.94
2019-06-27T15:10:52.708Z,98546.91
2019-06-27T15:13:24.676Z,98545.94
2019-06-27T15:16:10.780Z,98546.58
2019-06-27T15:18:30.612Z,98543.49
2019-06-27T15:21:02.653Z,98540.58
2019-06-27T15:23:34.623Z,98539.55
2019-06-27T15:26:06.721Z,98542.66
2019-06-27T15:28:38.764Z,98546.16
2019-06-27T15:31:10.765Z,98547.88
2019-06-27T15:33:42.737Z,98542.44
2019-06-27T15:36:14.874Z,98538.99
2019-06-27T15:38:46.846Z,98533.56
2019-06-27T15:41:18.981Z,98536.77
2019-06-27T15:43:50.992Z,98539.80
2019-06-27T15:46:23.080Z,98535.85
2019-06-27T15:48:55.021Z,98535.30
2019-06-27T15:51:27.078Z,98528.20
2019-06-27T15:53:59.045Z,98525.92
2019-06-27T15:56:31.155Z,98530.41
2019-06-27T15:59:03.881Z,98529.33
2019-06-27T16:01:36.169Z,98527.08
2019-06-27T16:04:08.153Z,98527.94
2019-06-27T16:06:40.198Z,98524.23
2019-06-27T16:09:12.191Z,98527.67
2019-06-27T16:11:44.338Z,98526.01
2019-06-27T16:14:16.367Z,98521.36
2019-06-27T16:16:48.370Z,98521.43
2019-06-27T16:19:20.355Z,98526.19
2019-06-27T16:21:52.355Z,98524.37
2019-06-27T16:24:24.361Z,98520.52
2019-06-27T16:26:56.425Z,98520.64
2019-06-27T16:29:28.453Z,98520.23
2019-06-27T16:32:00.672Z,98516.00
2019-06-27T16:34:32.679Z,98518.83
2019-06-27T16:37:04.843Z,98526.36
2019-06-27T16:39:39.005Z,98521.48
2019-06-27T16:42:10.804Z,98520.67
2019-06-27T16:44:42.787Z,98518.09
2019-06-27T16:47:14.972Z,98514.47
2019-06-27T16:49:46.909Z,98518.48
2019-06-27T16:52:18.949Z,98512.22
2019-06-27T16:54:50.925Z,98517.76
2019-06-27T16:57:23.024Z,98515.16
2019-06-27T16:59:55.014Z,98520.05
2019-06-27T17:02:27.181Z,98513.05
2019-06-27T17:04:59.156Z,98514.02
2019-06-27T17:07:31.181Z,98520.84
2019-06-27T17:10:03.429Z,98521.70
2019-06-27T17:12:35.416Z,98519.86
2019-06-27T17:15:08.716Z,98520.43
2019-06-27T17:17:40.738Z,98523.21
2019-06-27T17:20:12.834Z,98528.55
2019-06-27T17:22:44.858Z,98526.45
2019-06-27T17:25:16.837Z,98526.75
2019-06-27T17:27:48.838Z,98530.00
2019-06-27T17:30:21.368Z,98526.15
2019-06-27T17:32:53.398Z,98526.25
2019-06-27T17:35:25.420Z,98528.42
2019-06-27T17:37:57.437Z,98527.30
2019-06-27T17:40:29.537Z,98531.34
2019-06-27T17:43:01.596Z,98533.09
2019-06-27T17:45:33.575Z,98536.50
2019-06-27T17:48:05.592Z,98530.41
2019-06-27T17:50:37.590Z,98529.08
2019-06-27T17:53:09.604Z,98537.19
2019-06-27T17:55:41.639Z,98532.13
2019-06-27T17:58:13.638Z,98535.67
2019-06-27T18:00:45.729Z,98533.94
2019-06-27T18:03:17.753Z,98534.43
2019-06-27T18:05:49.836Z,98536.77
2019-06-27T18:08:21.818Z,98536.77
2019-06-27T18:10:53.821Z,98536.43
2019-06-27T18:13:25.803Z,98533.00
2019-06-27T18:15:57.853Z,98534.84
2019-06-27T18:18:29.877Z,98535.67
2019-06-27T18:21:01.895Z,98536.27
2019-06-27T18:23:33.917Z,98546.58
2019-06-27T18:26:05.935Z,98548.06
2019-06-27T18:28:37.963Z,98555.27
2019-06-27T18:31:09.953Z,98555.38
2019-06-27T18:33:41.955Z,98558.51
2019-06-27T18:36:13.951Z,98562.50
2019-06-27T18:38:45.985Z,98552.39
2019-06-27T18:41:17.983Z,98555.46
2019-06-27T18:43:49.980Z,98557.62
2019-06-27T18:46:22.000Z,98558.08
2019-06-27T18:48:54.046Z,98563.78
2019-06-27T18:51:26.098Z,98567.78
2019-06-27T18:54:00.931Z,98564.72
2019-06-27T18:56:32.023Z,98570.45
2019-06-27T18:59:04.088Z,98566.91
2019-06-27T19:01:36.234Z,98571.31
2019-06-27T19:04:08.220Z,98578.39
2019-06-27T19:06:40.235Z,98573.16
2019-06-27T19:09:12.241Z,98574.95
2019-06-27T19:11:44.293Z,98576.72
2019-06-27T19:14:16.303Z,98581.98
2019-06-27T19:16:48.296Z,98586.83
2019-06-27T19:19:23.241Z,98592.10
2019-06-27T19:22:23.707Z,98581.17
2019-06-27T19:25:06.508Z,98591.69
2019-06-27T19:27:38.519Z,98600.00
2019-06-27T19:30:10.746Z,98603.07
2019-06-27T19:32:42.891Z,98608.73
2019-06-27T19:35:14.913Z,98607.84
2019-06-27T19:38:00.966Z,98613.53
2019-06-27T19:40:20.933Z,98620.50
2019-06-27T19:42:52.952Z,98616.98
2019-06-27T19:45:24.977Z,98618.74
2019-06-27T19:47:56.992Z,98623.97
2019-06-27T19:50:28.983Z,98629.60
2019-06-27T19:53:01.051Z,98626.95
2019-06-27T19:55:33.056Z,98634.33
2019-06-27T19:58:05.091Z,98636.91
2019-06-27T20:00:37.172Z,98636.39
2019-06-27T20:03:09.176Z,98641.54
2019-06-27T20:05:41.146Z,98649.33
2019-06-27T20:08:19.449Z,98645.77
2019-06-27T20:10:47.110Z,98657.06
2019-06-27T20:13:19.126Z,98655.73
2019-06-27T20:15:51.104Z,98657.02
2019-06-27T20:18:23.143Z,98664.30
2019-06-27T20:20:55.164Z,98666.84
2019-06-27T20:23:27.254Z,98670.23
2019-06-27T20:25:59.219Z,98662.67
2019-06-27T20:28:31.263Z,98666.16
2019-06-27T20:31:03.252Z,98671.29
2019-06-27T20:33:35.242Z,98675.94
2019-06-27T20:36:07.274Z,98681.14
2019-06-27T20:38:39.337Z,98675.80
2019-06-27T20:41:11.355Z,98680.97
2019-06-27T20:43:43.421Z,98677.31
2019-06-27T20:46:15.416Z,98676.30
2019-06-27T20:48:47.442Z,98682.80
2019-06-27T20:51:19.503Z,98691.30
2019-06-27T20:53:51.520Z,98689.48
2019-06-27T20:56:23.532Z,98697.83
2019-06-27T20:58:55.570Z,98698.11
2019-06-27T21:01:30.528Z,98702.38
2019-06-27T21:04:01.583Z,98706.48
2019-06-27T21:06:33.566Z,98708.50
2019-06-27T21:09:05.615Z,98706.92
2019-06-27T21:11:37.639Z,98708.52
2019-06-27T21:14:09.708Z,98712.24
2019-06-27T21:16:41.733Z,98714.75
2019-06-27T21:19:13.712Z,98717.32
2019-06-27T21:21:45.746Z,98714.06
2019-06-27T21:24:17.770Z,98713.58
2019-06-27T21:26:49.804Z,98719.27
2019-06-27T21:29:21.775Z,98721.34
2019-06-27T21:31:53.895Z,98725.94
2019-06-27T21:34:25.899Z,98722.09
2019-06-27T21:36:57.880Z,98722.95
2019-06-27T21:39:29.859Z,98724.34
2019-06-27T21:42:01.906Z,98728.41
2019-06-27T21:44:33.895Z,98730.71
2019-06-27T21:47:05.933Z,98725.84
2019-06-27T21:49:37.974Z,98731.64
2019-06-27T21:52:10.074Z,98735.36
2019-06-27T21:54:42.074Z,98738.76
2019-06-27T21:57:14.272Z,98737.01
2019-06-27T21:59:46.379Z,98741.76
2019-06-27T22:02:18.399Z,98740.08
2019-06-27T22:04:50.365Z,98747.95
2019-06-27T22:07:22.380Z,98735.81
2019-06-27T22:09:54.356Z,98739.97
2019-06-27T22:12:26.387Z,98738.02
2019-06-27T22:14:58.388Z,98738.73
2019-06-27T22:17:30.417Z,98739.84
2019-06-27T22:20:14.595Z,98741.88
2019-06-27T22:22:36.290Z,98739.15
2019-06-27T22:25:09.059Z,98733.14
2019-06-27T22:27:41.003Z,98735.31
2019-06-27T22:30:13.333Z,98736.00
2019-06-27T22:32:45.379Z,98736.90
2019-06-27T22:35:17.380Z,98732.18
2019-06-27T22:38:07.733Z,98735.27
2019-06-27T22:40:58.027Z,98737.75
2019-06-27T22:43:48.174Z,98743.03
2019-06-27T22:46:38.397Z,98735.27
2019-06-27T22:49:10.789Z,98739.09
2019-06-27T22:52:02.648Z,98741.45
2019-06-27T22:54:35.920Z,98740.84
2019-06-27T22:57:07.924Z,98738.06
2019-06-27T22:59:39.953Z,98734.92
2019-06-27T23:02:11.949Z,98739.88
2019-06-27T23:04:43.937Z,98732.69
2019-06-27T23:07:15.892Z,98735.61
2019-06-27T23:09:56.998Z,98738.63
2019-06-27T23:12:21.751Z,98733.63
2019-06-27T23:14:53.780Z,98734.28
2019-06-27T23:17:25.738Z,98737.63
2019-06-27T23:19:57.828Z,98728.70
2019-06-27T23:22:29.764Z,98732.02
2019-06-27T23:25:01.864Z,98735.91
2019-06-27T23:27:33.964Z,98733.70
2019-06-27T23:30:06.341Z,98729.51
2019-06-27T23:32:38.450Z,98729.41
2019-06-27T23:35:10.763Z,98737.41
2019-06-27T23:37:42.701Z,98739.47
2019-06-27T23:40:15.271Z,98737.47
2019-06-27T23:42:47.304Z,98734.41
2019-06-27T23:45:19.387Z,98732.20
2019-06-27T23:47:51.330Z,98730.25
2019-06-27T23:50:23.302Z,98736.52
2019-06-27T23:52:55.270Z,98731.27
2019-06-27T23:55:27.218Z,98726.71
2019-06-27T23:57:59.191Z,98725.23
